Latest Weather Observations for Maria Island

IDT60901

Issued at 8:11 pm EST Wednesday 23 August 2017 (issued every 10 minutes, with the page automatically refreshed every 10 minutes)

About weather observations | Map of Hobart area stations | Latest observations for Hobart area | Other Formats
Station Details ID: 092124 Name: MARIA ISLAND (POINT LESUEUR) Lat: -42.66 Lon: 148.02 Height: 28.0 m
Data from the previous 72 hours. | See also: Recent months at Maria Island
Date/Time
EST
Temp
°C
App
Temp
°C
Dew
Point
°C
Rel
Hum
%
Delta-T
°C
Wind Press
QNH
hPa
Press
MSL
hPa
Rain since
9am
mm
Dir  Spd
km/h
Gust
km/h
Spd
kts
Gust
kts
23/08:00pm 8.0 0.0 5.5 84 1.1 SSW 37 43 20 23 1013.9 1013.9 10.0
23/07:30pm 7.9 -0.3 4.8 81 1.4 SSW 37 44 20 24 1013.8 1013.8 10.0
23/07:00pm 8.2 -2.3 5.5 83 1.2 SW 50 65 27 35 1013.3 1013.3 10.0
23/06:46pm 10.2 3.0 5.2 71 2.3 SW 32 59 17 32 1012.7 1012.7 10.0
23/06:30pm 10.3 6.0 5.1 70 2.4 SW 17 28 9 15 1012.6 1012.6 10.0
23/06:00pm 9.7 6.1 4.9 72 2.2 WSW 13 17 7 9 1012.1 1012.1 10.0
23/05:30pm 9.5 5.3 7.4 87 1.0 SSW 19 20 10 11 1012.0 1012.0 10.0
23/05:00pm 9.6 5.1 7.0 84 1.2 SSW 20 24 11 13 1011.2 1011.2 10.0
23/04:30pm 9.7 4.5 7.1 84 1.2 SSW 24 28 13 15 1010.9 1010.9 10.0
23/04:00pm 9.6 4.9 7.9 89 0.8 S 22 26 12 14 1010.7 1010.7 10.0
23/03:30pm 9.9 6.6 8.0 88 0.9 S 15 17 8 9 1010.5 1010.5 10.0
23/03:00pm 9.6 5.3 7.9 89 0.8 SSW 20 26 11 14 1010.6 1010.6 10.0
23/02:30pm 9.6 4.3 8.4 92 0.6 SSW 26 30 14 16 1010.5 1010.5 10.0
23/02:00pm 9.5 4.6 8.4 93 0.5 SSW 24 28 13 15 1010.5 1010.5 10.0
23/01:30pm 9.1 4.5 8.2 94 0.4 SSW 22 24 12 13 1010.6 1010.6 10.0
23/01:00pm 9.2 5.0 8.4 95 0.4 SSW 20 24 11 13 1010.8 1010.8 10.0
23/12:30pm 8.9 6.0 8.1 95 0.4 SSW 13 19 7 10 1011.4 1011.4 8.0
23/12:00pm 9.1 7.6 8.3 95 0.4 SW 6 9 3 5 1011.9 1011.9 6.8
23/11:30am 8.8 7.2 8.0 95 0.4 SW 6 9 3 5 1012.3 1012.3 5.0
23/11:00am 8.6 6.4 7.8 95 0.4 SW 9 11 5 6 1012.4 1012.4 3.0
23/10:30am 8.6 6.9 7.7 94 0.4 WSW 6 7 3 4 1012.6 1012.6 1.6
23/10:00am 8.6 7.6 7.5 93 0.5 SW 2 4 1 2 1012.6 1012.6 1.2
23/09:30am 8.8 8.3 7.7 93 0.5 CALM 0 0 0 0 1012.8 1012.8 0.6
23/09:00am 8.8 7.9 7.7 93 0.5 SSE 2 4 1 2 1013.0 1013.0 3.6
23/08:30am 8.4 6.6 7.3 93 0.5 SW 6 7 3 4 1013.3 1013.3 2.4
23/08:00am 8.3 6.6 7.4 94 0.4 SSW 6 9 3 5 1013.2 1013.2 1.6
23/07:30am 8.4 6.7 7.5 94 0.4 SSE 6 7 3 4 1013.2 1013.2 1.0
23/07:00am 8.3 5.6 7.4 94 0.4 S 11 13 6 7 1012.9 1012.9 0.6
23/06:30am 8.2 3.9 7.1 93 0.5 SSW 19 20 10 11 1012.9 1012.9 0.2
23/06:00am 8.2 3.4 7.4 95 0.4 SSW 22 24 12 13 1012.7 1012.7 0.2
23/05:30am 8.3 3.5 7.4 94 0.4 SSW 22 26 12 14 1012.6 1012.6 0.0
23/05:00am 8.6 3.9 7.7 94 0.4 SSW 22 24 12 13 1012.5 1012.5 0.0
23/04:30am 9.2 5.1 7.8 91 0.7 SSW 19 22 10 12 1012.4 1012.4 0.0
23/04:00am 9.4 5.0 7.5 88 0.9 SSW 20 24 11 13 1012.0 1012.0 0.0
23/03:30am 10.0 6.1 7.1 82 1.4 SW 17 17 9 9 1012.0 1012.0 0.0
23/03:00am 10.0 6.9 7.1 82 1.4 SW 13 19 7 10 1011.9 1011.9 0.0
23/02:30am 10.1 7.7 6.8 80 1.6 SW 9 13 5 7 1011.7 1011.7 0.0
23/02:00am 10.5 6.8 6.5 76 1.9 WNW 15 20 8 11 1011.5 1011.5 0.0
23/01:30am 10.7 5.1 7.0 78 1.8 NNW 26 30 14 16 1011.0 1011.0 0.0
23/01:00am 10.7 3.7 6.8 77 1.8 N 33 39 18 21 1010.5 1010.5 0.0
23/12:30am 10.9 4.1 6.8 76 1.9 NNW 32 35 17 19 1010.5 1010.5 0.0
23/12:00am 10.9 4.4 6.6 75 2.0 NNW 30 33 16 18 1010.4 1010.4 0.0
 
Date/Time
EST
Temp
°C
App
Temp
°C
Dew
Point
°C
Rel
Hum
%
Delta-T
°C
Wind Press
QNH
hPa
Press
MSL
hPa
Rain since
9am
mm
Dir  Spd
km/h
Gust
km/h
Spd
kts
Gust
kts
22/11:30pm 11.1 5.1 7.0 76 2.0 NNW 28 30 15 16 1010.4 1010.4 0.0
22/11:00pm 11.1 5.8 7.0 76 2.0 NNW 24 28 13 15 1010.5 1010.5 0.0
22/10:30pm 11.3 5.3 7.2 76 2.0 NNW 28 32 15 17 1010.6 1010.6 0.0
22/10:00pm 11.1 6.7 7.6 79 1.7 NNW 20 24 11 13 1010.9 1010.9 0.0
22/09:30pm 11.3 6.2 7.6 78 1.8 NNW 24 28 13 15 1010.8 1010.8 0.0
22/09:00pm 11.5 6.8 7.6 77 1.9 N 22 26 12 14 1011.0 1011.0 0.0
22/08:30pm 11.6 6.5 7.7 77 1.9 N 24 28 13 15 1010.9 1010.9 0.0
22/08:00pm 11.8 6.8 7.9 77 1.9 N 24 28 13 15 1010.8 1010.8 0.0
22/07:30pm 12.0 7.3 7.9 76 2.0 N 22 28 12 15 1011.0 1011.0 0.0
22/07:00pm 12.1 6.7 7.8 75 2.1 N 26 32 14 17 1010.7 1010.7 0.0
22/06:30pm 12.2 6.4 7.9 75 2.1 N 28 33 15 18 1010.6 1010.6 0.0
22/06:00pm 12.4 6.1 7.5 72 2.4 N 30 37 16 20 1010.4 1010.4 0.0
22/05:30pm 12.9 5.6 7.4 69 2.7 NNW 35 39 19 21 1010.1 1010.1 0.0
22/05:00pm 13.3 7.0 7.5 68 2.8 N 30 35 16 19 1010.2 1010.2 0.0
22/04:30pm 13.7 8.2 7.7 67 3.0 N 26 32 14 17 1010.1 1010.1 0.0
22/04:00pm 13.8 9.5 8.0 68 2.9 N 20 24 11 13 1010.1 1010.1 0.0
22/03:30pm 14.3 10.1 8.3 67 3.0 N 20 22 11 12 1010.1 1010.1 0.0
22/03:00pm 14.4 8.9 7.5 63 3.4 NNW 26 32 14 17 1010.2 1010.2 0.0
22/02:30pm 14.0 8.9 7.5 65 3.2 N 24 30 13 16 1010.4 1010.4 0.0
22/02:00pm 14.6 9.3 6.9 60 3.8 N 24 28 13 15 1010.5 1010.5 0.0
22/01:30pm 13.4 7.3 6.5 63 3.3 N 28 32 15 17 1010.5 1010.5 0.0
22/01:00pm 13.8 8.7 5.9 59 3.8 N 22 26 12 14 1011.1 1011.1 0.0
22/12:30pm 13.9 9.3 6.7 62 3.5 N 20 26 11 14 1011.4 1011.4 0.0
22/12:00pm 13.5 9.0 5.9 60 3.6 N 19 20 10 11 1011.9 1011.9 0.0
22/11:30am 13.6 8.4 5.5 58 3.8 N 22 24 12 13 1012.4 1012.4 0.0
22/11:00am 12.7 8.3 4.9 59 3.6 NNW 17 22 9 12 1012.9 1012.9 0.0
22/10:30am 11.9 7.8 4.6 61 3.3 NNW 15 19 8 10 1013.0 1013.0 0.0
22/10:00am 11.3 7.3 5.0 65 2.9 NNW 15 19 8 10 1012.9 1012.9 0.0
22/09:30am 11.1 6.1 4.6 64 2.9 N 20 26 11 14 1012.9 1012.9 0.0
22/09:00am 10.4 4.4 5.2 70 2.4 N 26 30 14 16 1012.7 1012.7 0.0
22/08:30am 9.7 6.0 4.5 70 2.3 NNW 13 19 7 10 1013.0 1013.0 0.0
22/08:00am 8.5 4.2 3.4 70 2.2 NNW 15 17 8 9 1013.1 1013.1 0.0
22/07:30am 7.9 2.9 3.4 73 1.9 N 19 22 10 12 1013.4 1013.4 0.0
22/07:00am 7.7 1.7 3.2 73 1.9 NNW 24 30 13 16 1013.2 1013.2 0.0
22/06:30am 7.4 1.7 2.9 73 1.9 NNW 22 32 12 17 1013.2 1013.2 0.0
22/06:00am 7.5 2.8 3.2 74 1.8 NNW 17 22 9 12 1013.1 1013.1 0.0
22/05:30am 7.5 3.3 3.9 78 1.5 NNW 15 19 8 10 1013.0 1013.0 0.0
22/05:00am 7.8 1.8 3.5 74 1.8 NNW 24 32 13 17 1012.9 1012.9 0.0
22/04:30am 7.3 2.6 3.4 76 1.7 NW 17 24 9 13 1013.1 1013.1 0.0
22/04:00am 7.8 1.5 3.5 74 1.8 NNW 26 30 14 16 1012.8 1012.8 0.0
22/03:30am 7.7 1.4 3.7 76 1.7 NNW 26 33 14 18 1012.7 1012.7 0.0
22/03:00am 7.5 2.9 3.7 77 1.6 NW 17 20 9 11 1013.1 1013.1 0.0
22/02:30am 6.8 2.6 3.8 81 1.3 WNW 15 19 8 10 1013.3 1013.3 0.0
22/02:00am 6.8 3.0 3.8 81 1.3 WNW 13 15 7 8 1013.5 1013.5 0.0
22/01:30am 7.3 3.9 3.9 79 1.5 W 11 15 6 8 1013.5 1013.5 0.0
22/01:00am 7.5 4.6 4.5 81 1.3 NW 9 13 5 7 1013.7 1013.7 0.0
22/12:30am 7.0 3.6 3.8 80 1.4 WNW 11 13 6 7 1013.9 1013.9 0.0
22/12:00am 7.3 3.9 3.9 79 1.5 W 11 15 6 8 1014.1 1014.1 0.0
 
Date/Time
EST
Temp
°C
App
Temp
°C
Dew
Point
°C
Rel
Hum
%
Delta-T
°C
Wind Press
QNH
hPa
Press
MSL
hPa
Rain since
9am
mm
Dir  Spd
km/h
Gust
km/h
Spd
kts
Gust
kts
21/11:30pm 7.3 4.2 3.7 78 1.5 WNW 9 13 5 7 1014.2 1014.2 0.0
21/11:00pm 7.5 4.1 4.1 79 1.5 NW 11 13 6 7 1014.2 1014.2 0.0
21/10:30pm 7.3 3.9 4.1 80 1.4 WNW 11 13 6 7 1014.3 1014.3 0.0
21/10:00pm 7.8 4.6 4.9 82 1.3 NW 11 13 6 7 1014.4 1014.4 0.0
21/09:30pm 8.1 4.8 4.5 78 1.6 NW 11 15 6 8 1014.3 1014.3 0.0
21/09:00pm 7.8 4.9 4.6 80 1.4 NW 9 11 5 6 1014.3 1014.3 0.0
21/08:30pm 7.3 4.9 4.4 82 1.3 N 6 7 3 4 1014.2 1014.2 0.0
21/08:00pm 8.9 6.8 5.6 80 1.5 WNW 6 6 3 3 1014.1 1014.1 0.0
21/07:30pm 9.1 6.5 4.1 71 2.2 W 7 9 4 5 1013.9 1013.9 0.0
21/07:00pm 9.0 6.6 4.2 72 2.1 WNW 6 9 3 5 1013.6 1013.6 0.0
21/06:30pm 8.7 6.2 4.5 75 1.9 WSW 7 9 4 5 1013.5 1013.5 0.0
21/06:00pm 9.5 7.7 3.5 66 2.6 NNE 2 4 1 2 1013.1 1013.1 0.0
21/05:30pm 9.6 8.0 2.5 61 3.0 CALM 0 2 0 1 1013.0 1013.0 0.0
21/05:00pm 10.4 8.8 2.7 59 3.3 CALM 0 0 0 0 1012.8 1012.8 0.0
21/04:30pm 10.9 9.0 3.0 58 3.4 NNW 2 4 1 2 1012.8 1012.8 0.0
21/04:00pm 11.3 8.9 2.3 54 3.9 ENE 4 6 2 3 1012.8 1012.8 0.0
21/03:30pm 10.9 8.1 2.0 54 3.8 ESE 6 9 3 5 1012.7 1012.7 0.0
21/03:00pm 10.7 7.6 1.5 53 3.9 ENE 7 9 4 5 1012.8 1012.8 0.0
21/02:30pm 10.5 7.6 2.4 57 3.5 E 7 11 4 6 1012.9 1012.9 0.0
21/02:00pm 10.2 7.4 2.3 58 3.4 E 6 11 3 6 1013.1 1013.1 0.0
21/01:30pm 10.1 7.9 3.2 62 3.0 WNW 4 6 2 3 1013.4 1013.4 0.0
21/01:00pm 10.9 8.1 3.2 59 3.4 NW 7 11 4 6 1013.5 1013.5 0.0
21/12:30pm 11.5 9.0 3.5 58 3.5 W 6 9 3 5 1013.6 1013.6 0.0
21/12:00pm 11.1 8.6 3.6 60 3.3 NNE 6 7 3 4 1013.9 1013.9 0.0
21/11:30am 10.1 7.0 3.4 63 2.9 N 9 13 5 7 1014.4 1014.4 0.0
21/11:00am 10.2 6.8 3.9 65 2.8 N 11 13 6 7 1014.6 1014.6 0.0
21/10:30am 9.7 5.8 3.2 64 2.8 N 13 17 7 9 1014.9 1014.9 0.0
21/10:00am 10.3 5.8 4.2 66 2.7 N 17 20 9 11 1015.1 1015.1 0.0
21/09:30am 9.6 6.5 3.8 67 2.5 N 9 15 5 8 1015.3 1015.3 0.0
21/09:00am 9.1 6.4 3.9 70 2.3 NW 7 11 4 6 1015.4 1015.4 0.0
21/08:30am 8.4 5.0 3.8 73 2.0 WNW 11 15 6 8 1015.6 1015.6 0.0
21/08:00am 8.3 4.5 4.1 75 1.8 WNW 13 15 7 8 1015.7 1015.7 0.0
21/07:30am 8.1 4.4 4.7 79 1.5 NW 13 15 7 8 1015.6 1015.6 0.0
21/07:00am 7.4 4.8 4.0 79 1.5 WNW 7 9 4 5 1015.3 1015.3 0.0
21/06:30am 7.7 5.2 3.7 76 1.7 WNW 6 7 3 4 1015.2 1015.2 0.0
21/06:00am 7.5 4.9 4.1 79 1.5 WNW 7 11 4 6 1015.3 1015.3 0.0
21/05:30am 7.9 5.5 4.1 77 1.6 NW 6 7 3 4 1015.2 1015.2 0.0
21/05:00am 7.9 5.4 3.8 75 1.8 NW 6 9 3 5 1015.2 1015.2 0.0
21/04:30am 7.7 4.6 3.6 75 1.8 WNW 9 13 5 7 1015.4 1015.4 0.0
21/04:00am 7.7 5.1 3.4 74 1.8 WNW 6 7 3 4 1015.7 1015.7 0.0
21/03:30am 7.9 4.8 3.6 74 1.8 WNW 9 13 5 7 1015.9 1015.9 0.0
21/03:00am 7.8 4.3 3.7 75 1.8 NW 11 17 6 9 1015.9 1015.9 0.0
21/02:30am 7.8 4.0 3.8 76 1.7 WNW 13 15 7 8 1016.0 1016.0 0.0
21/02:00am 7.7 4.9 3.4 74 1.8 NW 7 11 4 6 1016.2 1016.2 0.0
21/01:30am 7.1 4.0 3.7 79 1.5 WNW 9 11 5 6 1016.5 1016.5 0.0
21/01:00am 7.5 5.1 4.5 81 1.3 W 6 9 3 5 1016.7 1016.7 0.0
21/12:30am 7.5 5.0 4.6 82 1.3 NW 7 9 4 5 1016.8 1016.8 0.0
21/12:00am 7.9 5.6 4.8 81 1.4 N 6 7 3 4 1016.9 1016.9 0.0
 
Date/Time
EST
Temp
°C
App
Temp
°C
Dew
Point
°C
Rel
Hum
%
Delta-T
°C
Wind Press
QNH
hPa
Press
MSL
hPa
Rain since
9am
mm
Dir  Spd
km/h
Gust
km/h
Spd
kts
Gust
kts
20/11:30pm 8.1 4.8 4.7 79 1.5 N 11 13 6 7 1017.2 1017.2 0.0
20/11:00pm 8.5 5.8 3.9 73 2.0 N 7 9 4 5 1017.6 1017.6 0.0
20/10:30pm 8.4 5.7 3.8 73 2.0 NNW 7 11 4 6 1017.9 1017.9 0.0
20/10:00pm 7.6 4.8 5.1 84 1.1 NW 9 11 5 6 1018.0 1018.0 0.0
20/09:30pm 8.2 5.3 4.8 79 1.5 NW 9 19 5 10 1018.0 1018.0 0.0
20/09:00pm 9.1 4.6 4.1 71 2.2 NNE 17 20 9 11 1017.7 1017.7 0.0
20/08:30pm 8.2 5.0 3.3 71 2.1 NE 9 15 5 8 1017.6 1017.6 0.0

Latest Capital City Observations: Canberra | Sydney | Melbourne | Brisbane | Adelaide | Perth | Hobart | Darwin

Other Formats:

Comma delimited format used in spreadsheet applications
http://www.bom.gov.au/fwo/IDT60901/IDT60901.95988.axf

JavaScript Object Notation format (JSON) in row-major order
http://www.bom.gov.au/fwo/IDT60901/IDT60901.95988.json